sensor_id;sensor_type;location;lat;lon;timestamp;P1;durP1;ratioP1;P2;durP2;ratioP2
84161;SDS011;74285;52.372;12.924;2023-12-20T00:01:00;4.18;;;2.55;;
84161;SDS011;74285;52.372;12.924;2023-12-20T00:03:25;3.77;;;2.70;;
84161;SDS011;74285;52.372;12.924;2023-12-20T00:05:51;4.77;;;2.33;;
84161;SDS011;74285;52.372;12.924;2023-12-20T00:08:16;4.40;;;2.50;;
84161;SDS011;74285;52.372;12.924;2023-12-20T00:10:44;5.32;;;2.72;;
84161;SDS011;74285;52.372;12.924;2023-12-20T00:13:10;3.45;;;2.22;;
84161;SDS011;74285;52.372;12.924;2023-12-20T00:15:35;4.72;;;3.15;;
84161;SDS011;74285;52.372;12.924;2023-12-20T00:18:01;3.77;;;2.67;;
84161;SDS011;74285;52.372;12.924;2023-12-20T00:20:26;4.10;;;2.67;;
84161;SDS011;74285;52.372;12.924;2023-12-20T00:22:52;3.63;;;1.98;;
84161;SDS011;74285;52.372;12.924;2023-12-20T00:25:19;2.70;;;1.90;;
84161;SDS011;74285;52.372;12.924;2023-12-20T00:27:44;5.13;;;3.20;;
84161;SDS011;74285;52.372;12.924;2023-12-20T00:30:10;4.50;;;2.75;;
84161;SDS011;74285;52.372;12.924;2023-12-20T00:32:35;3.45;;;2.42;;
84161;SDS011;74285;52.372;12.924;2023-12-20T00:35:01;5.22;;;2.95;;
84161;SDS011;74285;52.372;12.924;2023-12-20T00:37:26;4.72;;;2.70;;
84161;SDS011;74285;52.372;12.924;2023-12-20T00:39:52;4.83;;;2.97;;
84161;SDS011;74285;52.372;12.924;2023-12-20T00:42:17;5.65;;;3.30;;
84161;SDS011;74285;52.372;12.924;2023-12-20T00:44:42;4.97;;;3.00;;
84161;SDS011;74285;52.372;12.924;2023-12-20T00:47:07;5.00;;;3.10;;
84161;SDS011;74285;52.372;12.924;2023-12-20T00:49:33;4.53;;;2.60;;
84161;SDS011;74285;52.372;12.924;2023-12-20T00:51:58;4.30;;;3.10;;
84161;SDS011;74285;52.372;12.924;2023-12-20T00:54:23;4.50;;;3.23;;
84161;SDS011;74285;52.372;12.924;2023-12-20T00:56:49;4.43;;;2.57;;
84161;SDS011;74285;52.372;12.924;2023-12-20T00:59:14;3.80;;;2.37;;
84161;SDS011;74285;52.372;12.924;2023-12-20T01:01:41;4.85;;;2.40;;
84161;SDS011;74285;52.372;12.924;2023-12-20T01:04:07;5.03;;;3.10;;
84161;SDS011;74285;52.372;12.924;2023-12-20T01:06:32;4.97;;;3.17;;
84161;SDS011;74285;52.372;12.924;2023-12-20T01:08:57;5.77;;;3.20;;
84161;SDS011;74285;52.372;12.924;2023-12-20T01:11:22;4.57;;;2.47;;
84161;SDS011;74285;52.372;12.924;2023-12-20T01:13:48;4.23;;;2.47;;
84161;SDS011;74285;52.372;12.924;2023-12-20T01:16:13;4.37;;;2.73;;
84161;SDS011;74285;52.372;12.924;2023-12-20T01:18:38;6.17;;;2.80;;
84161;SDS011;74285;52.372;12.924;2023-12-20T01:21:04;4.37;;;3.00;;
84161;SDS011;74285;52.372;12.924;2023-12-20T01:23:29;5.95;;;3.13;;
84161;SDS011;74285;52.372;12.924;2023-12-20T01:25:55;6.38;;;3.97;;
84161;SDS011;74285;52.372;12.924;2023-12-20T01:28:20;4.63;;;2.70;;
84161;SDS011;74285;52.372;12.924;2023-12-20T01:30:46;5.03;;;3.40;;
84161;SDS011;74285;52.372;12.924;2023-12-20T01:33:11;6.00;;;3.10;;
84161;SDS011;74285;52.372;12.924;2023-12-20T01:35:36;6.00;;;3.47;;
84161;SDS011;74285;52.372;12.924;2023-12-20T01:38:02;6.72;;;3.70;;
84161;SDS011;74285;52.372;12.924;2023-12-20T01:40:27;7.60;;;4.60;;
84161;SDS011;74285;52.372;12.924;2023-12-20T01:43:06;7.30;;;4.37;;
84161;SDS011;74285;52.372;12.924;2023-12-20T01:45:33;5.43;;;3.45;;
84161;SDS011;74285;52.372;12.924;2023-12-20T01:47:58;7.17;;;4.47;;
84161;SDS011;74285;52.372;12.924;2023-12-20T01:50:23;5.72;;;3.42;;
84161;SDS011;74285;52.372;12.924;2023-12-20T01:52:49;6.60;;;4.28;;
84161;SDS011;74285;52.372;12.924;2023-12-20T01:55:17;7.13;;;3.85;;
84161;SDS011;74285;52.372;12.924;2023-12-20T02:00:09;6.80;;;3.93;;
84161;SDS011;74285;52.372;12.924;2023-12-20T02:02:35;7.05;;;3.15;;
84161;SDS011;74285;52.372;12.924;2023-12-20T02:05:01;5.72;;;3.25;;
84161;SDS011;74285;52.372;12.924;2023-12-20T02:07:28;6.45;;;3.53;;
84161;SDS011;74285;52.372;12.924;2023-12-20T02:09:54;5.30;;;3.60;;
84161;SDS011;74285;52.372;12.924;2023-12-20T02:12:20;7.28;;;4.22;;
84161;SDS011;74285;52.372;12.924;2023-12-20T02:14:46;7.43;;;3.63;;
84161;SDS011;74285;52.372;12.924;2023-12-20T02:17:11;5.80;;;3.40;;
84161;SDS011;74285;52.372;12.924;2023-12-20T02:19:36;7.13;;;3.80;;
84161;SDS011;74285;52.372;12.924;2023-12-20T02:22:07;5.93;;;3.00;;
84161;SDS011;74285;52.372;12.924;2023-12-20T02:24:36;5.80;;;3.92;;
84161;SDS011;74285;52.372;12.924;2023-12-20T02:27:01;5.50;;;3.30;;
84161;SDS011;74285;52.372;12.924;2023-12-20T02:29:27;6.40;;;3.25;;
84161;SDS011;74285;52.372;12.924;2023-12-20T02:31:52;5.25;;;3.55;;
84161;SDS011;74285;52.372;12.924;2023-12-20T02:34:17;5.10;;;2.90;;
84161;SDS011;74285;52.372;12.924;2023-12-20T02:36:43;5.53;;;3.20;;
84161;SDS011;74285;52.372;12.924;2023-12-20T02:39:08;6.47;;;3.50;;
84161;SDS011;74285;52.372;12.924;2023-12-20T02:41:33;5.50;;;3.20;;
84161;SDS011;74285;52.372;12.924;2023-12-20T02:43:59;6.90;;;3.60;;
84161;SDS011;74285;52.372;12.924;2023-12-20T02:46:24;7.33;;;3.77;;
84161;SDS011;74285;52.372;12.924;2023-12-20T02:48:49;5.70;;;3.50;;
84161;SDS011;74285;52.372;12.924;2023-12-20T02:51:14;5.33;;;3.43;;
84161;SDS011;74285;52.372;12.924;2023-12-20T02:53:40;5.60;;;3.25;;
84161;SDS011;74285;52.372;12.924;2023-12-20T02:56:07;5.73;;;3.77;;
84161;SDS011;74285;52.372;12.924;2023-12-20T02:58:35;5.85;;;3.35;;
84161;SDS011;74285;52.372;12.924;2023-12-20T03:01:00;5.93;;;3.10;;
84161;SDS011;74285;52.372;12.924;2023-12-20T03:03:25;5.67;;;3.00;;
84161;SDS011;74285;52.372;12.924;2023-12-20T03:05:50;5.67;;;3.80;;
84161;SDS011;74285;52.372;12.924;2023-12-20T03:08:17;5.72;;;3.10;;
84161;SDS011;74285;52.372;12.924;2023-12-20T03:10:42;4.30;;;3.13;;
84161;SDS011;74285;52.372;12.924;2023-12-20T03:13:10;6.03;;;2.97;;
84161;SDS011;74285;52.372;12.924;2023-12-20T03:15:35;6.40;;;2.77;;
84161;SDS011;74285;52.372;12.924;2023-12-20T03:18:01;6.15;;;3.40;;
84161;SDS011;74285;52.372;12.924;2023-12-20T03:20:26;5.97;;;3.17;;
84161;SDS011;74285;52.372;12.924;2023-12-20T03:22:52;5.67;;;2.77;;
84161;SDS011;74285;52.372;12.924;2023-12-20T03:25:17;4.83;;;2.60;;
84161;SDS011;74285;52.372;12.924;2023-12-20T03:27:42;5.70;;;3.20;;
84161;SDS011;74285;52.372;12.924;2023-12-20T03:30:08;9.97;;;3.00;;
84161;SDS011;74285;52.372;12.924;2023-12-20T03:32:33;5.20;;;3.17;;
84161;SDS011;74285;52.372;12.924;2023-12-20T03:34:59;4.97;;;3.13;;
84161;SDS011;74285;52.372;12.924;2023-12-20T03:37:25;4.97;;;2.80;;
84161;SDS011;74285;52.372;12.924;2023-12-20T03:39:51;5.35;;;2.35;;
84161;SDS011;74285;52.372;12.924;2023-12-20T03:42:17;4.63;;;2.17;;
84161;SDS011;74285;52.372;12.924;2023-12-20T03:44:42;2.75;;;1.50;;
84161;SDS011;74285;52.372;12.924;2023-12-20T03:47:08;3.77;;;1.67;;
84161;SDS011;74285;52.372;12.924;2023-12-20T03:49:33;2.23;;;1.43;;
84161;SDS011;74285;52.372;12.924;2023-12-20T03:51:58;4.10;;;1.33;;
84161;SDS011;74285;52.372;12.924;2023-12-20T03:54:24;2.67;;;0.97;;
84161;SDS011;74285;52.372;12.924;2023-12-20T03:56:49;7.57;;;1.15;;
84161;SDS011;74285;52.372;12.924;2023-12-20T03:59:15;4.57;;;1.30;;
84161;SDS011;74285;52.372;12.924;2023-12-20T04:01:43;4.93;;;1.57;;
84161;SDS011;74285;52.372;12.924;2023-12-20T04:04:09;3.47;;;1.23;;
84161;SDS011;74285;52.372;12.924;2023-12-20T04:06:34;5.00;;;1.40;;
84161;SDS011;74285;52.372;12.924;2023-12-20T04:09:01;2.80;;;1.75;;
84161;SDS011;74285;52.372;12.924;2023-12-20T04:13:52;4.47;;;1.67;;
84161;SDS011;74285;52.372;12.924;2023-12-20T04:16:17;5.27;;;1.97;;
84161;SDS011;74285;52.372;12.924;2023-12-20T04:18:43;5.07;;;1.27;;
84161;SDS011;74285;52.372;12.924;2023-12-20T04:21:08;4.47;;;0.97;;
84161;SDS011;74285;52.372;12.924;2023-12-20T04:23:33;3.70;;;0.90;;
84161;SDS011;74285;52.372;12.924;2023-12-20T04:25:59;8.07;;;1.00;;
84161;SDS011;74285;52.372;12.924;2023-12-20T04:28:24;2.80;;;0.70;;
84161;SDS011;74285;52.372;12.924;2023-12-20T04:30:50;2.85;;;0.82;;
84161;SDS011;74285;52.372;12.924;2023-12-20T04:33:15;3.97;;;0.73;;
84161;SDS011;74285;52.372;12.924;2023-12-20T04:35:40;3.97;;;1.17;;
84161;SDS011;74285;52.372;12.924;2023-12-20T04:38:07;5.15;;;1.08;;
84161;SDS011;74285;52.372;12.924;2023-12-20T04:40:33;2.93;;;1.37;;
84161;SDS011;74285;52.372;12.924;2023-12-20T04:42:58;9.33;;;1.60;;
84161;SDS011;74285;52.372;12.924;2023-12-20T04:45:23;8.93;;;1.00;;
84161;SDS011;74285;52.372;12.924;2023-12-20T04:47:49;5.10;;;1.42;;
84161;SDS011;74285;52.372;12.924;2023-12-20T04:50:15;5.55;;;1.17;;
84161;SDS011;74285;52.372;12.924;2023-12-20T04:52:40;8.00;;;1.70;;
84161;SDS011;74285;52.372;12.924;2023-12-20T04:55:06;6.63;;;1.37;;
84161;SDS011;74285;52.372;12.924;2023-12-20T04:57:31;7.75;;;1.25;;
84161;SDS011;74285;52.372;12.924;2023-12-20T04:59:56;1.50;;;0.90;;
84161;SDS011;74285;52.372;12.924;2023-12-20T05:02:22;6.87;;;0.90;;
84161;SDS011;74285;52.372;12.924;2023-12-20T05:04:47;1.33;;;0.80;;
84161;SDS011;74285;52.372;12.924;2023-12-20T05:07:12;2.90;;;0.87;;
84161;SDS011;74285;52.372;12.924;2023-12-20T05:09:37;4.57;;;0.90;;
84161;SDS011;74285;52.372;12.924;2023-12-20T05:12:03;7.23;;;1.00;;
84161;SDS011;74285;52.372;12.924;2023-12-20T05:14:28;5.40;;;1.73;;
84161;SDS011;74285;52.372;12.924;2023-12-20T05:16:53;3.60;;;0.90;;
84161;SDS011;74285;52.372;12.924;2023-12-20T05:19:19;4.70;;;0.90;;
84161;SDS011;74285;52.372;12.924;2023-12-20T05:21:44;3.20;;;1.27;;
84161;SDS011;74285;52.372;12.924;2023-12-20T05:24:09;8.93;;;1.13;;
84161;SDS011;74285;52.372;12.924;2023-12-20T05:26:34;4.10;;;1.00;;
84161;SDS011;74285;52.372;12.924;2023-12-20T05:29:00;5.23;;;1.83;;
84161;SDS011;74285;52.372;12.924;2023-12-20T05:31:25;3.27;;;0.97;;
84161;SDS011;74285;52.372;12.924;2023-12-20T05:33:50;4.38;;;0.98;;
84161;SDS011;74285;52.372;12.924;2023-12-20T05:36:16;4.43;;;0.70;;
84161;SDS011;74285;52.372;12.924;2023-12-20T05:38:41;2.33;;;0.73;;
84161;SDS011;74285;52.372;12.924;2023-12-20T05:41:06;3.83;;;1.20;;
84161;SDS011;74285;52.372;12.924;2023-12-20T05:43:32;7.60;;;2.17;;
84161;SDS011;74285;52.372;12.924;2023-12-20T05:45:57;3.60;;;1.00;;
84161;SDS011;74285;52.372;12.924;2023-12-20T05:48:23;7.00;;;1.30;;
84161;SDS011;74285;52.372;12.924;2023-12-20T05:50:48;3.00;;;1.17;;
84161;SDS011;74285;52.372;12.924;2023-12-20T05:53:14;5.13;;;0.90;;
84161;SDS011;74285;52.372;12.924;2023-12-20T05:55:39;2.70;;;0.67;;
84161;SDS011;74285;52.372;12.924;2023-12-20T05:58:05;3.50;;;0.95;;
84161;SDS011;74285;52.372;12.924;2023-12-20T06:00:30;6.63;;;1.17;;
84161;SDS011;74285;52.372;12.924;2023-12-20T06:02:55;7.70;;;1.20;;
84161;SDS011;74285;52.372;12.924;2023-12-20T06:05:20;3.47;;;0.87;;
84161;SDS011;74285;52.372;12.924;2023-12-20T06:07:46;5.37;;;1.10;;
84161;SDS011;74285;52.372;12.924;2023-12-20T06:10:13;6.80;;;1.38;;
84161;SDS011;74285;52.372;12.924;2023-12-20T06:12:40;3.30;;;1.10;;
84161;SDS011;74285;52.372;12.924;2023-12-20T06:15:05;2.28;;;1.20;;
84161;SDS011;74285;52.372;12.924;2023-12-20T06:17:31;7.30;;;1.02;;
84161;SDS011;74285;52.372;12.924;2023-12-20T06:19:56;3.67;;;1.42;;
84161;SDS011;74285;52.372;12.924;2023-12-20T06:22:23;6.95;;;1.10;;
84161;SDS011;74285;52.372;12.924;2023-12-20T06:24:49;11.77;;;4.28;;
84161;SDS011;74285;52.372;12.924;2023-12-20T06:27:14;7.67;;;1.47;;
84161;SDS011;74285;52.372;12.924;2023-12-20T06:29:39;5.77;;;1.60;;
84161;SDS011;74285;52.372;12.924;2023-12-20T06:34:31;6.03;;;2.43;;
84161;SDS011;74285;52.372;12.924;2023-12-20T06:36:56;5.93;;;1.73;;
84161;SDS011;74285;52.372;12.924;2023-12-20T06:39:21;5.90;;;1.20;;
84161;SDS011;74285;52.372;12.924;2023-12-20T06:41:47;5.57;;;1.23;;
84161;SDS011;74285;52.372;12.924;2023-12-20T06:44:13;4.75;;;0.70;;
84161;SDS011;74285;52.372;12.924;2023-12-20T06:46:39;7.77;;;1.40;;
84161;SDS011;74285;52.372;12.924;2023-12-20T06:49:04;6.27;;;1.00;;
84161;SDS011;74285;52.372;12.924;2023-12-20T06:51:29;3.43;;;1.03;;
84161;SDS011;74285;52.372;12.924;2023-12-20T06:53:55;5.00;;;1.45;;
84161;SDS011;74285;52.372;12.924;2023-12-20T06:56:21;5.50;;;1.40;;
84161;SDS011;74285;52.372;12.924;2023-12-20T06:58:46;2.53;;;0.80;;
84161;SDS011;74285;52.372;12.924;2023-12-20T07:01:13;7.10;;;1.20;;
84161;SDS011;74285;52.372;12.924;2023-12-20T07:03:39;7.88;;;1.30;;
84161;SDS011;74285;52.372;12.924;2023-12-20T07:06:05;8.65;;;1.10;;
84161;SDS011;74285;52.372;12.924;2023-12-20T07:08:30;3.75;;;1.20;;
84161;SDS011;74285;52.372;12.924;2023-12-20T07:10:56;8.33;;;1.00;;
84161;SDS011;74285;52.372;12.924;2023-12-20T07:13:21;4.10;;;1.07;;
84161;SDS011;74285;52.372;12.924;2023-12-20T07:15:47;3.15;;;0.93;;
84161;SDS011;74285;52.372;12.924;2023-12-20T07:18:13;5.65;;;1.13;;
84161;SDS011;74285;52.372;12.924;2023-12-20T07:20:38;4.63;;;0.80;;
84161;SDS011;74285;52.372;12.924;2023-12-20T07:23:03;3.63;;;1.05;;
84161;SDS011;74285;52.372;12.924;2023-12-20T07:25:29;7.30;;;0.60;;
84161;SDS011;74285;52.372;12.924;2023-12-20T07:27:57;4.32;;;0.90;;
84161;SDS011;74285;52.372;12.924;2023-12-20T07:30:22;5.03;;;1.47;;
84161;SDS011;74285;52.372;12.924;2023-12-20T07:32:47;8.23;;;1.43;;
84161;SDS011;74285;52.372;12.924;2023-12-20T07:35:13;6.90;;;1.50;;
84161;SDS011;74285;52.372;12.924;2023-12-20T07:37:41;4.15;;;1.65;;
84161;SDS011;74285;52.372;12.924;2023-12-20T07:40:06;5.27;;;1.20;;
84161;SDS011;74285;52.372;12.924;2023-12-20T07:42:32;2.88;;;1.00;;
84161;SDS011;74285;52.372;12.924;2023-12-20T07:44:58;8.40;;;1.27;;
84161;SDS011;74285;52.372;12.924;2023-12-20T07:47:23;1.93;;;0.60;;
84161;SDS011;74285;52.372;12.924;2023-12-20T07:49:50;6.15;;;1.67;;
84161;SDS011;74285;52.372;12.924;2023-12-20T07:52:16;3.08;;;0.30;;
84161;SDS011;74285;52.372;12.924;2023-12-20T07:54:42;1.90;;;0.40;;
84161;SDS011;74285;52.372;12.924;2023-12-20T07:57:07;2.50;;;0.50;;
84161;SDS011;74285;52.372;12.924;2023-12-20T07:59:32;5.10;;;0.80;;
84161;SDS011;74285;52.372;12.924;2023-12-20T08:01:58;1.40;;;0.50;;
84161;SDS011;74285;52.372;12.924;2023-12-20T08:04:23;2.80;;;0.60;;
84161;SDS011;74285;52.372;12.924;2023-12-20T08:06:48;6.87;;;0.87;;
84161;SDS011;74285;52.372;12.924;2023-12-20T08:09:14;5.10;;;0.68;;
84161;SDS011;74285;52.372;12.924;2023-12-20T08:11:39;1.48;;;0.43;;
84161;SDS011;74285;52.372;12.924;2023-12-20T08:14:09;4.57;;;0.82;;
84161;SDS011;74285;52.372;12.924;2023-12-20T08:16:35;6.63;;;1.27;;
84161;SDS011;74285;52.372;12.924;2023-12-20T08:19:00;7.03;;;2.88;;
84161;SDS011;74285;52.372;12.924;2023-12-20T08:21:25;4.73;;;1.37;;
84161;SDS011;74285;52.372;12.924;2023-12-20T08:23:51;10.38;;;1.67;;
84161;SDS011;74285;52.372;12.924;2023-12-20T08:26:18;3.72;;;1.92;;
84161;SDS011;74285;52.372;12.924;2023-12-20T08:28:45;6.90;;;1.08;;
84161;SDS011;74285;52.372;12.924;2023-12-20T08:31:14;4.05;;;0.70;;
84161;SDS011;74285;52.372;12.924;2023-12-20T08:33:41;4.40;;;1.00;;
84161;SDS011;74285;52.372;12.924;2023-12-20T08:38:33;4.50;;;1.00;;
84161;SDS011;74285;52.372;12.924;2023-12-20T08:40:58;4.27;;;1.40;;
84161;SDS011;74285;52.372;12.924;2023-12-20T08:43:23;5.80;;;1.33;;
84161;SDS011;74285;52.372;12.924;2023-12-20T08:45:48;2.53;;;1.03;;
84161;SDS011;74285;52.372;12.924;2023-12-20T08:48:14;5.13;;;1.00;;
84161;SDS011;74285;52.372;12.924;2023-12-20T08:50:39;5.83;;;1.53;;
84161;SDS011;74285;52.372;12.924;2023-12-20T08:53:04;10.20;;;0.97;;
84161;SDS011;74285;52.372;12.924;2023-12-20T08:55:30;3.50;;;0.60;;
84161;SDS011;74285;52.372;12.924;2023-12-20T08:57:56;3.95;;;0.85;;
84161;SDS011;74285;52.372;12.924;2023-12-20T09:00:21;5.15;;;0.90;;
84161;SDS011;74285;52.372;12.924;2023-12-20T09:02:49;3.92;;;0.50;;
84161;SDS011;74285;52.372;12.924;2023-12-20T09:05:14;2.97;;;0.60;;
84161;SDS011;74285;52.372;12.924;2023-12-20T09:07:39;3.40;;;0.80;;
84161;SDS011;74285;52.372;12.924;2023-12-20T09:10:05;4.83;;;0.93;;
84161;SDS011;74285;52.372;12.924;2023-12-20T09:12:30;8.25;;;0.75;;
84161;SDS011;74285;52.372;12.924;2023-12-20T09:14:56;3.93;;;0.73;;
84161;SDS011;74285;52.372;12.924;2023-12-20T09:17:21;4.07;;;0.87;;
84161;SDS011;74285;52.372;12.924;2023-12-20T09:19:47;3.60;;;1.17;;
84161;SDS011;74285;52.372;12.924;2023-12-20T09:22:13;7.22;;;0.95;;
84161;SDS011;74285;52.372;12.924;2023-12-20T09:24:38;1.93;;;0.80;;
84161;SDS011;74285;52.372;12.924;2023-12-20T09:27:04;7.90;;;2.17;;
84161;SDS011;74285;52.372;12.924;2023-12-20T09:29:30;8.80;;;1.05;;
84161;SDS011;74285;52.372;12.924;2023-12-20T09:31:55;7.67;;;1.07;;
84161;SDS011;74285;52.372;12.924;2023-12-20T09:36:48;7.60;;;2.00;;
84161;SDS011;74285;52.372;12.924;2023-12-20T09:39:14;2.72;;;0.50;;
84161;SDS011;74285;52.372;12.924;2023-12-20T09:41:42;4.95;;;1.20;;
84161;SDS011;74285;52.372;12.924;2023-12-20T09:44:08;3.63;;;0.85;;
84161;SDS011;74285;52.372;12.924;2023-12-20T09:46:38;5.63;;;1.48;;
84161;SDS011;74285;52.372;12.924;2023-12-20T09:49:04;3.83;;;1.00;;
84161;SDS011;74285;52.372;12.924;2023-12-20T09:51:31;3.58;;;1.02;;
84161;SDS011;74285;52.372;12.924;2023-12-20T09:53:56;4.20;;;1.52;;
84161;SDS011;74285;52.372;12.924;2023-12-20T09:56:23;4.32;;;1.00;;
84161;SDS011;74285;52.372;12.924;2023-12-20T09:58:49;4.35;;;1.15;;
84161;SDS011;74285;52.372;12.924;2023-12-20T10:01:15;6.13;;;1.23;;
84161;SDS011;74285;52.372;12.924;2023-12-20T10:03:41;10.13;;;1.15;;
84161;SDS011;74285;52.372;12.924;2023-12-20T10:06:06;8.60;;;1.13;;
84161;SDS011;74285;52.372;12.924;2023-12-20T10:08:33;4.00;;;0.65;;
84161;SDS011;74285;52.372;12.924;2023-12-20T10:10:59;3.88;;;0.75;;
84161;SDS011;74285;52.372;12.924;2023-12-20T10:13:27;3.78;;;1.00;;
84161;SDS011;74285;52.372;12.924;2023-12-20T10:15:52;5.43;;;1.55;;
84161;SDS011;74285;52.372;12.924;2023-12-20T10:18:20;3.35;;;0.75;;
84161;SDS011;74285;52.372;12.924;2023-12-20T10:20:45;5.75;;;1.45;;
84161;SDS011;74285;52.372;12.924;2023-12-20T10:23:11;4.63;;;1.10;;
84161;SDS011;74285;52.372;12.924;2023-12-20T10:25:37;3.90;;;0.73;;
84161;SDS011;74285;52.372;12.924;2023-12-20T10:28:12;5.83;;;1.50;;
84161;SDS011;74285;52.372;12.924;2023-12-20T10:30:39;5.00;;;1.20;;
84161;SDS011;74285;52.372;12.924;2023-12-20T10:33:08;3.40;;;0.93;;
84161;SDS011;74285;52.372;12.924;2023-12-20T10:35:34;6.95;;;1.27;;
84161;SDS011;74285;52.372;12.924;2023-12-20T10:38:01;6.82;;;1.27;;
84161;SDS011;74285;52.372;12.924;2023-12-20T10:40:29;10.48;;;1.80;;
84161;SDS011;74285;52.372;12.924;2023-12-20T10:42:55;2.80;;;1.30;;
84161;SDS011;74285;52.372;12.924;2023-12-20T10:45:21;4.20;;;0.95;;
84161;SDS011;74285;52.372;12.924;2023-12-20T10:47:47;7.47;;;1.63;;
84161;SDS011;74285;52.372;12.924;2023-12-20T10:50:13;4.70;;;1.13;;
84161;SDS011;74285;52.372;12.924;2023-12-20T10:52:39;5.32;;;1.13;;
84161;SDS011;74285;52.372;12.924;2023-12-20T10:55:05;6.43;;;1.73;;
84161;SDS011;74285;52.372;12.924;2023-12-20T10:57:31;7.75;;;0.95;;
84161;SDS011;74285;52.372;12.924;2023-12-20T10:59:56;7.35;;;1.10;;
84161;SDS011;74285;52.372;12.924;2023-12-20T11:02:26;1.45;;;0.63;;
84161;SDS011;74285;52.372;12.924;2023-12-20T11:05:04;4.45;;;1.15;;
84161;SDS011;74285;52.372;12.924;2023-12-20T11:07:35;2.97;;;1.00;;
84161;SDS011;74285;52.372;12.924;2023-12-20T11:10:25;6.38;;;1.77;;
84161;SDS011;74285;52.372;12.924;2023-12-20T11:12:54;3.67;;;0.85;;
84161;SDS011;74285;52.372;12.924;2023-12-20T11:15:24;4.97;;;1.15;;
84161;SDS011;74285;52.372;12.924;2023-12-20T11:17:56;3.63;;;1.55;;
84161;SDS011;74285;52.372;12.924;2023-12-20T11:20:22;6.72;;;1.13;;
84161;SDS011;74285;52.372;12.924;2023-12-20T11:22:54;6.50;;;1.80;;
84161;SDS011;74285;52.372;12.924;2023-12-20T11:25:20;6.68;;;1.73;;
84161;SDS011;74285;52.372;12.924;2023-12-20T11:27:47;3.50;;;1.45;;
84161;SDS011;74285;52.372;12.924;2023-12-20T11:30:50;7.43;;;1.42;;
84161;SDS011;74285;52.372;12.924;2023-12-20T11:33:23;2.80;;;1.10;;
84161;SDS011;74285;52.372;12.924;2023-12-20T11:35:49;6.25;;;1.15;;
84161;SDS011;74285;52.372;12.924;2023-12-20T11:38:15;5.25;;;0.70;;
84161;SDS011;74285;52.372;12.924;2023-12-20T11:40:43;5.38;;;1.00;;
84161;SDS011;74285;52.372;12.924;2023-12-20T11:43:09;1.88;;;1.10;;
84161;SDS011;74285;52.372;12.924;2023-12-20T11:45:34;2.90;;;1.20;;
84161;SDS011;74285;52.372;12.924;2023-12-20T11:48:00;1.13;;;0.50;;
84161;SDS011;74285;52.372;12.924;2023-12-20T11:50:27;2.25;;;1.60;;
84161;SDS011;74285;52.372;12.924;2023-12-20T11:52:53;7.40;;;1.90;;
84161;SDS011;74285;52.372;12.924;2023-12-20T11:55:23;1.73;;;0.80;;
84161;SDS011;74285;52.372;12.924;2023-12-20T11:57:49;1.23;;;0.70;;
84161;SDS011;74285;52.372;12.924;2023-12-20T12:00:15;6.65;;;1.13;;
84161;SDS011;74285;52.372;12.924;2023-12-20T12:02:41;4.95;;;1.05;;
84161;SDS011;74285;52.372;12.924;2023-12-20T12:05:06;14.33;;;3.63;;
84161;SDS011;74285;52.372;12.924;2023-12-20T12:07:32;3.70;;;0.80;;
84161;SDS011;74285;52.372;12.924;2023-12-20T12:09:57;1.10;;;0.57;;
84161;SDS011;74285;52.372;12.924;2023-12-20T12:12:23;8.48;;;1.92;;
84161;SDS011;74285;52.372;12.924;2023-12-20T12:14:50;6.18;;;1.42;;
84161;SDS011;74285;52.372;12.924;2023-12-20T12:17:15;6.33;;;1.20;;
84161;SDS011;74285;52.372;12.924;2023-12-20T12:19:41;6.73;;;1.43;;
84161;SDS011;74285;52.372;12.924;2023-12-20T12:22:13;7.00;;;1.05;;
84161;SDS011;74285;52.372;12.924;2023-12-20T12:24:44;2.63;;;1.30;;
84161;SDS011;74285;52.372;12.924;2023-12-20T12:27:11;6.47;;;1.42;;
84161;SDS011;74285;52.372;12.924;2023-12-20T12:29:37;3.58;;;1.15;;
84161;SDS011;74285;52.372;12.924;2023-12-20T12:32:06;3.47;;;1.23;;
84161;SDS011;74285;52.372;12.924;2023-12-20T12:34:32;4.53;;;1.20;;
84161;SDS011;74285;52.372;12.924;2023-12-20T12:36:59;5.30;;;1.15;;
84161;SDS011;74285;52.372;12.924;2023-12-20T12:39:24;1.58;;;1.20;;
84161;SDS011;74285;52.372;12.924;2023-12-20T12:41:52;2.33;;;0.90;;
84161;SDS011;74285;52.372;12.924;2023-12-20T12:44:18;4.40;;;1.60;;
84161;SDS011;74285;52.372;12.924;2023-12-20T12:46:47;4.85;;;1.02;;
84161;SDS011;74285;52.372;12.924;2023-12-20T12:49:15;3.90;;;1.00;;
84161;SDS011;74285;52.372;12.924;2023-12-20T12:51:40;3.93;;;2.07;;
84161;SDS011;74285;52.372;12.924;2023-12-20T12:54:06;6.20;;;1.65;;
84161;SDS011;74285;52.372;12.924;2023-12-20T12:56:31;6.00;;;0.77;;
84161;SDS011;74285;52.372;12.924;2023-12-20T12:58:56;4.17;;;1.47;;
84161;SDS011;74285;52.372;12.924;2023-12-20T13:01:22;2.87;;;0.90;;
84161;SDS011;74285;52.372;12.924;2023-12-20T13:03:47;5.30;;;1.30;;
84161;SDS011;74285;52.372;12.924;2023-12-20T13:06:12;6.90;;;1.70;;
84161;SDS011;74285;52.372;12.924;2023-12-20T13:08:38;5.87;;;1.27;;
84161;SDS011;74285;52.372;12.924;2023-12-20T13:11:03;4.07;;;1.50;;
84161;SDS011;74285;52.372;12.924;2023-12-20T13:13:29;2.42;;;1.25;;
84161;SDS011;74285;52.372;12.924;2023-12-20T13:15:55;5.07;;;1.10;;
84161;SDS011;74285;52.372;12.924;2023-12-20T13:18:20;3.43;;;1.43;;
84161;SDS011;74285;52.372;12.924;2023-12-20T13:20:46;2.47;;;1.05;;
84161;SDS011;74285;52.372;12.924;2023-12-20T13:23:12;1.88;;;0.55;;
84161;SDS011;74285;52.372;12.924;2023-12-20T13:25:37;1.35;;;0.20;;
84161;SDS011;74285;52.372;12.924;2023-12-20T13:28:03;0.10;;;0.10;;
84161;SDS011;74285;52.372;12.924;2023-12-20T13:30:28;0.10;;;0.10;;
84161;SDS011;74285;52.372;12.924;2023-12-20T13:32:54;0.83;;;0.13;;
84161;SDS011;74285;52.372;12.924;2023-12-20T13:35:19;1.37;;;0.20;;
84161;SDS011;74285;52.372;12.924;2023-12-20T13:37:45;1.00;;;0.68;;
84161;SDS011;74285;52.372;12.924;2023-12-20T13:40:10;2.47;;;0.40;;
84161;SDS011;74285;52.372;12.924;2023-12-20T13:42:36;2.05;;;0.60;;
84161;SDS011;74285;52.372;12.924;2023-12-20T13:45:01;4.97;;;1.20;;
84161;SDS011;74285;52.372;12.924;2023-12-20T13:47:26;1.75;;;0.60;;
84161;SDS011;74285;52.372;12.924;2023-12-20T13:49:52;1.63;;;0.70;;
84161;SDS011;74285;52.372;12.924;2023-12-20T13:52:17;2.13;;;0.93;;
84161;SDS011;74285;52.372;12.924;2023-12-20T13:54:43;4.00;;;1.35;;
84161;SDS011;74285;52.372;12.924;2023-12-20T13:57:08;2.77;;;0.73;;
84161;SDS011;74285;52.372;12.924;2023-12-20T13:59:34;0.77;;;0.50;;
84161;SDS011;74285;52.372;12.924;2023-12-20T14:02:00;3.35;;;0.70;;
84161;SDS011;74285;52.372;12.924;2023-12-20T14:04:26;0.93;;;0.75;;
84161;SDS011;74285;52.372;12.924;2023-12-20T14:06:51;2.10;;;1.10;;
84161;SDS011;74285;52.372;12.924;2023-12-20T14:09:16;5.33;;;1.13;;
84161;SDS011;74285;52.372;12.924;2023-12-20T14:11:41;2.60;;;0.93;;
84161;SDS011;74285;52.372;12.924;2023-12-20T14:14:07;1.77;;;0.90;;
84161;SDS011;74285;52.372;12.924;2023-12-20T14:16:33;3.97;;;0.88;;
84161;SDS011;74285;52.372;12.924;2023-12-20T14:18:59;1.95;;;1.27;;
84161;SDS011;74285;52.372;12.924;2023-12-20T14:21:25;3.20;;;0.83;;
84161;SDS011;74285;52.372;12.924;2023-12-20T14:23:50;2.27;;;0.90;;
84161;SDS011;74285;52.372;12.924;2023-12-20T14:28:42;5.03;;;1.00;;
84161;SDS011;74285;52.372;12.924;2023-12-20T14:31:07;2.50;;;0.35;;
84161;SDS011;74285;52.372;12.924;2023-12-20T14:33:34;2.05;;;0.82;;
84161;SDS011;74285;52.372;12.924;2023-12-20T14:35:59;2.30;;;0.60;;
84161;SDS011;74285;52.372;12.924;2023-12-20T14:38:25;1.87;;;0.80;;
84161;SDS011;74285;52.372;12.924;2023-12-20T14:40:50;1.30;;;0.50;;